sensor_id;sensor_type;location;lat;lon;timestamp;P1;durP1;ratioP1;P2;durP2;ratioP2
21886;SDS011;11108;49.988;8.182;2023-06-24T00:01:34;4.70;;;4.37;;
21886;SDS011;11108;49.988;8.182;2023-06-24T00:04:00;4.80;;;4.40;;
21886;SDS011;11108;49.988;8.182;2023-06-24T00:06:25;4.93;;;4.53;;
21886;SDS011;11108;49.988;8.182;2023-06-24T00:08:51;5.23;;;4.73;;
21886;SDS011;11108;49.988;8.182;2023-06-24T00:11:16;4.80;;;4.33;;
21886;SDS011;11108;49.988;8.182;2023-06-24T00:13:42;5.07;;;4.57;;
21886;SDS011;11108;49.988;8.182;2023-06-24T00:16:07;4.90;;;4.40;;
21886;SDS011;11108;49.988;8.182;2023-06-24T00:18:33;4.50;;;4.20;;
21886;SDS011;11108;49.988;8.182;2023-06-24T00:20:58;5.03;;;4.53;;
21886;SDS011;11108;49.988;8.182;2023-06-24T00:23:23;5.17;;;4.13;;
21886;SDS011;11108;49.988;8.182;2023-06-24T00:25:52;4.82;;;4.20;;
21886;SDS011;11108;49.988;8.182;2023-06-24T00:28:17;4.82;;;4.40;;
21886;SDS011;11108;49.988;8.182;2023-06-24T00:30:42;4.40;;;4.10;;
21886;SDS011;11108;49.988;8.182;2023-06-24T00:33:08;4.50;;;4.10;;
21886;SDS011;11108;49.988;8.182;2023-06-24T00:35:36;4.67;;;4.37;;
21886;SDS011;11108;49.988;8.182;2023-06-24T00:38:02;4.90;;;4.50;;
21886;SDS011;11108;49.988;8.182;2023-06-24T00:40:27;5.97;;;5.40;;
21886;SDS011;11108;49.988;8.182;2023-06-24T00:42:53;6.32;;;5.72;;
21886;SDS011;11108;49.988;8.182;2023-06-24T00:45:18;6.27;;;5.67;;
21886;SDS011;11108;49.988;8.182;2023-06-24T00:47:43;6.90;;;6.30;;
21886;SDS011;11108;49.988;8.182;2023-06-24T00:50:09;7.37;;;6.67;;
21886;SDS011;11108;49.988;8.182;2023-06-24T00:52:37;7.53;;;6.27;;
21886;SDS011;11108;49.988;8.182;2023-06-24T00:55:04;6.20;;;5.70;;
21886;SDS011;11108;49.988;8.182;2023-06-24T00:57:29;6.77;;;6.17;;
21886;SDS011;11108;49.988;8.182;2023-06-24T00:59:55;6.47;;;5.87;;
21886;SDS011;11108;49.988;8.182;2023-06-24T01:02:21;6.07;;;5.57;;
21886;SDS011;11108;49.988;8.182;2023-06-24T01:04:48;5.97;;;5.47;;
21886;SDS011;11108;49.988;8.182;2023-06-24T01:07:13;6.90;;;6.20;;
21886;SDS011;11108;49.988;8.182;2023-06-24T01:09:39;5.47;;;5.00;;
21886;SDS011;11108;49.988;8.182;2023-06-24T01:12:04;5.63;;;5.23;;
21886;SDS011;11108;49.988;8.182;2023-06-24T01:14:31;5.53;;;5.03;;
21886;SDS011;11108;49.988;8.182;2023-06-24T01:17:04;5.40;;;4.90;;
21886;SDS011;11108;49.988;8.182;2023-06-24T01:22:11;5.27;;;4.77;;
21886;SDS011;11108;49.988;8.182;2023-06-24T01:30:20;4.80;;;4.17;;
21886;SDS011;11108;49.988;8.182;2023-06-24T01:32:54;5.07;;;4.43;;
21886;SDS011;11108;49.988;8.182;2023-06-24T01:35:22;5.13;;;4.83;;
21886;SDS011;11108;49.988;8.182;2023-06-24T01:37:49;4.90;;;4.50;;
21886;SDS011;11108;49.988;8.182;2023-06-24T01:40:33;5.20;;;4.70;;
21886;SDS011;11108;49.988;8.182;2023-06-24T01:43:00;4.90;;;4.60;;
21886;SDS011;11108;49.988;8.182;2023-06-24T01:45:27;5.00;;;4.60;;
21886;SDS011;11108;49.988;8.182;2023-06-24T01:48:12;5.47;;;5.07;;
21886;SDS011;11108;49.988;8.182;2023-06-24T01:50:38;4.90;;;4.60;;
21886;SDS011;11108;49.988;8.182;2023-06-24T01:53:05;5.20;;;4.80;;
21886;SDS011;11108;49.988;8.182;2023-06-24T01:55:32;5.33;;;4.83;;
21886;SDS011;11108;49.988;8.182;2023-06-24T01:57:57;5.30;;;4.80;;
21886;SDS011;11108;49.988;8.182;2023-06-24T02:00:23;4.90;;;4.60;;
21886;SDS011;11108;49.988;8.182;2023-06-24T02:02:49;4.93;;;4.53;;
21886;SDS011;11108;49.988;8.182;2023-06-24T02:05:14;5.30;;;4.90;;
21886;SDS011;11108;49.988;8.182;2023-06-24T02:07:42;4.90;;;4.60;;
21886;SDS011;11108;49.988;8.182;2023-06-24T02:10:08;4.80;;;4.50;;
21886;SDS011;11108;49.988;8.182;2023-06-24T02:12:33;5.30;;;4.90;;
21886;SDS011;11108;49.988;8.182;2023-06-24T02:14:59;5.53;;;5.13;;
21886;SDS011;11108;49.988;8.182;2023-06-24T02:17:26;5.90;;;5.43;;
21886;SDS011;11108;49.988;8.182;2023-06-24T02:19:54;5.40;;;4.93;;
21886;SDS011;11108;49.988;8.182;2023-06-24T02:22:20;5.70;;;5.20;;
21886;SDS011;11108;49.988;8.182;2023-06-24T02:24:46;5.40;;;4.97;;
21886;SDS011;11108;49.988;8.182;2023-06-24T02:27:12;5.67;;;5.17;;
21886;SDS011;11108;49.988;8.182;2023-06-24T02:29:38;5.20;;;4.80;;
21886;SDS011;11108;49.988;8.182;2023-06-24T02:32:04;5.13;;;4.73;;
21886;SDS011;11108;49.988;8.182;2023-06-24T02:34:29;5.27;;;4.97;;
21886;SDS011;11108;49.988;8.182;2023-06-24T02:36:55;5.43;;;5.03;;
21886;SDS011;11108;49.988;8.182;2023-06-24T02:39:20;5.87;;;5.37;;
21886;SDS011;11108;49.988;8.182;2023-06-24T02:41:45;5.17;;;4.40;;
21886;SDS011;11108;49.988;8.182;2023-06-24T02:44:12;5.17;;;4.77;;
21886;SDS011;11108;49.988;8.182;2023-06-24T02:46:37;5.10;;;4.60;;
21886;SDS011;11108;49.988;8.182;2023-06-24T02:49:03;5.03;;;4.63;;
21886;SDS011;11108;49.988;8.182;2023-06-24T02:51:30;5.40;;;5.00;;
21886;SDS011;11108;49.988;8.182;2023-06-24T02:53:55;5.07;;;4.67;;
21886;SDS011;11108;49.988;8.182;2023-06-24T02:56:23;5.13;;;4.77;;
21886;SDS011;11108;49.988;8.182;2023-06-24T02:58:49;5.13;;;4.73;;
21886;SDS011;11108;49.988;8.182;2023-06-24T03:01:15;5.67;;;5.20;;
21886;SDS011;11108;49.988;8.182;2023-06-24T03:03:41;5.57;;;5.10;;
21886;SDS011;11108;49.988;8.182;2023-06-24T03:06:06;6.17;;;4.93;;
21886;SDS011;11108;49.988;8.182;2023-06-24T03:08:31;6.00;;;5.50;;
21886;SDS011;11108;49.988;8.182;2023-06-24T03:10:57;6.17;;;5.57;;
21886;SDS011;11108;49.988;8.182;2023-06-24T03:13:22;5.47;;;4.97;;
21886;SDS011;11108;49.988;8.182;2023-06-24T03:15:48;6.67;;;6.07;;
21886;SDS011;11108;49.988;8.182;2023-06-24T03:18:13;6.87;;;6.27;;
21886;SDS011;11108;49.988;8.182;2023-06-24T03:20:38;6.70;;;6.10;;
21886;SDS011;11108;49.988;8.182;2023-06-24T03:23:07;6.83;;;6.13;;
21886;SDS011;11108;49.988;8.182;2023-06-24T03:25:33;6.50;;;5.87;;
21886;SDS011;11108;49.988;8.182;2023-06-24T03:27:58;5.50;;;5.00;;
21886;SDS011;11108;49.988;8.182;2023-06-24T03:30:25;5.73;;;5.13;;
21886;SDS011;11108;49.988;8.182;2023-06-24T03:32:50;5.83;;;5.27;;
21886;SDS011;11108;49.988;8.182;2023-06-24T03:35:16;6.43;;;5.77;;
21886;SDS011;11108;49.988;8.182;2023-06-24T03:37:41;9.57;;;7.07;;
21886;SDS011;11108;49.988;8.182;2023-06-24T03:40:06;7.13;;;6.43;;
21886;SDS011;11108;49.988;8.182;2023-06-24T03:42:32;8.57;;;6.40;;
21886;SDS011;11108;49.988;8.182;2023-06-24T03:44:58;5.63;;;5.20;;
21886;SDS011;11108;49.988;8.182;2023-06-24T03:47:23;5.23;;;4.83;;
21886;SDS011;11108;49.988;8.182;2023-06-24T03:49:48;6.57;;;5.97;;
21886;SDS011;11108;49.988;8.182;2023-06-24T03:52:13;5.07;;;4.67;;
21886;SDS011;11108;49.988;8.182;2023-06-24T03:54:39;4.90;;;4.53;;
21886;SDS011;11108;49.988;8.182;2023-06-24T03:57:05;5.30;;;4.90;;
21886;SDS011;11108;49.988;8.182;2023-06-24T03:59:31;5.07;;;4.67;;
21886;SDS011;11108;49.988;8.182;2023-06-24T04:01:56;5.60;;;5.20;;
21886;SDS011;11108;49.988;8.182;2023-06-24T04:04:22;5.20;;;4.80;;
21886;SDS011;11108;49.988;8.182;2023-06-24T04:06:48;5.13;;;4.73;;
21886;SDS011;11108;49.988;8.182;2023-06-24T04:09:13;5.37;;;4.97;;
21886;SDS011;11108;49.988;8.182;2023-06-24T04:11:38;6.17;;;5.10;;
21886;SDS011;11108;49.988;8.182;2023-06-24T04:14:03;5.67;;;5.17;;
21886;SDS011;11108;49.988;8.182;2023-06-24T04:16:31;5.57;;;5.10;;
21886;SDS011;11108;49.988;8.182;2023-06-24T04:18:56;6.23;;;5.63;;
21886;SDS011;11108;49.988;8.182;2023-06-24T04:21:22;5.07;;;4.67;;
21886;SDS011;11108;49.988;8.182;2023-06-24T04:23:47;5.53;;;5.07;;
21886;SDS011;11108;49.988;8.182;2023-06-24T04:26:12;5.33;;;4.53;;
21886;SDS011;11108;49.988;8.182;2023-06-24T04:28:37;5.40;;;4.90;;
21886;SDS011;11108;49.988;8.182;2023-06-24T04:31:03;5.57;;;4.93;;
21886;SDS011;11108;49.988;8.182;2023-06-24T04:33:28;5.57;;;5.10;;
21886;SDS011;11108;49.988;8.182;2023-06-24T04:35:54;6.10;;;5.50;;
21886;SDS011;11108;49.988;8.182;2023-06-24T04:38:19;5.70;;;5.20;;
21886;SDS011;11108;49.988;8.182;2023-06-24T04:40:44;5.70;;;5.30;;
21886;SDS011;11108;49.988;8.182;2023-06-24T04:43:10;6.10;;;5.50;;
21886;SDS011;11108;49.988;8.182;2023-06-24T04:45:35;5.63;;;5.13;;
21886;SDS011;11108;49.988;8.182;2023-06-24T04:48:00;6.10;;;5.60;;
21886;SDS011;11108;49.988;8.182;2023-06-24T04:50:25;6.07;;;5.57;;
21886;SDS011;11108;49.988;8.182;2023-06-24T04:52:54;5.87;;;5.47;;
21886;SDS011;11108;49.988;8.182;2023-06-24T04:55:21;6.53;;;6.00;;
21886;SDS011;11108;49.988;8.182;2023-06-24T04:57:46;6.20;;;5.70;;
21886;SDS011;11108;49.988;8.182;2023-06-24T05:00:12;6.27;;;5.77;;
21886;SDS011;11108;49.988;8.182;2023-06-24T05:02:37;5.57;;;5.07;;
21886;SDS011;11108;49.988;8.182;2023-06-24T05:05:02;5.33;;;4.93;;
21886;SDS011;11108;49.988;8.182;2023-06-24T05:07:27;6.07;;;5.57;;
21886;SDS011;11108;49.988;8.182;2023-06-24T05:09:53;5.90;;;5.50;;
21886;SDS011;11108;49.988;8.182;2023-06-24T05:12:18;5.53;;;5.13;;
21886;SDS011;11108;49.988;8.182;2023-06-24T05:14:43;5.50;;;5.10;;
21886;SDS011;11108;49.988;8.182;2023-06-24T05:17:08;5.60;;;5.10;;
21886;SDS011;11108;49.988;8.182;2023-06-24T05:19:34;5.77;;;5.27;;
21886;SDS011;11108;49.988;8.182;2023-06-24T05:21:59;5.80;;;5.40;;
21886;SDS011;11108;49.988;8.182;2023-06-24T05:24:24;5.70;;;5.10;;
21886;SDS011;11108;49.988;8.182;2023-06-24T05:26:50;5.77;;;5.27;;
21886;SDS011;11108;49.988;8.182;2023-06-24T05:29:15;5.30;;;4.90;;
21886;SDS011;11108;49.988;8.182;2023-06-24T05:31:40;6.33;;;5.77;;
21886;SDS011;11108;49.988;8.182;2023-06-24T05:34:07;6.33;;;5.00;;
21886;SDS011;11108;49.988;8.182;2023-06-24T05:36:32;6.17;;;5.57;;
21886;SDS011;11108;49.988;8.182;2023-06-24T05:38:57;6.50;;;6.00;;
21886;SDS011;11108;49.988;8.182;2023-06-24T05:41:23;6.28;;;5.80;;
21886;SDS011;11108;49.988;8.182;2023-06-24T05:43:48;7.07;;;5.80;;
21886;SDS011;11108;49.988;8.182;2023-06-24T05:46:13;7.07;;;6.37;;
21886;SDS011;11108;49.988;8.182;2023-06-24T05:48:38;7.20;;;6.50;;
21886;SDS011;11108;49.988;8.182;2023-06-24T05:51:04;6.90;;;6.13;;
21886;SDS011;11108;49.988;8.182;2023-06-24T05:53:29;9.87;;;7.07;;
21886;SDS011;11108;49.988;8.182;2023-06-24T05:55:54;7.87;;;7.10;;
21886;SDS011;11108;49.988;8.182;2023-06-24T05:58:19;8.53;;;6.80;;
21886;SDS011;11108;49.988;8.182;2023-06-24T06:00:44;7.73;;;7.03;;
21886;SDS011;11108;49.988;8.182;2023-06-24T06:03:10;7.00;;;6.40;;
21886;SDS011;11108;49.988;8.182;2023-06-24T06:05:35;7.20;;;6.60;;
21886;SDS011;11108;49.988;8.182;2023-06-24T06:08:01;6.33;;;5.83;;
21886;SDS011;11108;49.988;8.182;2023-06-24T06:10:26;7.03;;;6.43;;
21886;SDS011;11108;49.988;8.182;2023-06-24T06:12:51;6.83;;;6.13;;
21886;SDS011;11108;49.988;8.182;2023-06-24T06:15:18;7.77;;;7.07;;
21886;SDS011;11108;49.988;8.182;2023-06-24T06:17:43;7.17;;;6.40;;
21886;SDS011;11108;49.988;8.182;2023-06-24T06:20:08;6.57;;;6.07;;
21886;SDS011;11108;49.988;8.182;2023-06-24T06:22:33;6.60;;;5.90;;
21886;SDS011;11108;49.988;8.182;2023-06-24T06:25:03;6.77;;;6.27;;
21886;SDS011;11108;49.988;8.182;2023-06-24T06:27:28;6.93;;;5.83;;
21886;SDS011;11108;49.988;8.182;2023-06-24T06:29:53;6.78;;;6.07;;
21886;SDS011;11108;49.988;8.182;2023-06-24T06:32:18;6.53;;;5.93;;
21886;SDS011;11108;49.988;8.182;2023-06-24T06:34:44;6.90;;;6.30;;
21886;SDS011;11108;49.988;8.182;2023-06-24T06:37:09;6.37;;;5.87;;
21886;SDS011;11108;49.988;8.182;2023-06-24T06:39:34;6.47;;;5.97;;
21886;SDS011;11108;49.988;8.182;2023-06-24T06:41:59;6.17;;;5.57;;
21886;SDS011;11108;49.988;8.182;2023-06-24T06:44:24;6.73;;;6.13;;
21886;SDS011;11108;49.988;8.182;2023-06-24T06:46:50;6.20;;;5.70;;
21886;SDS011;11108;49.988;8.182;2023-06-24T06:49:15;6.45;;;5.85;;
21886;SDS011;11108;49.988;8.182;2023-06-24T06:51:40;5.88;;;5.38;;
21886;SDS011;11108;49.988;8.182;2023-06-24T06:54:05;5.40;;;5.00;;
21886;SDS011;11108;49.988;8.182;2023-06-24T06:56:30;5.27;;;4.83;;
21886;SDS011;11108;49.988;8.182;2023-06-24T06:58:56;5.20;;;4.70;;
21886;SDS011;11108;49.988;8.182;2023-06-24T07:01:21;5.70;;;5.13;;
21886;SDS011;11108;49.988;8.182;2023-06-24T07:03:46;6.00;;;5.50;;
21886;SDS011;11108;49.988;8.182;2023-06-24T07:06:11;6.03;;;5.43;;
21886;SDS011;11108;49.988;8.182;2023-06-24T07:08:36;6.23;;;5.57;;
21886;SDS011;11108;49.988;8.182;2023-06-24T07:11:02;7.07;;;5.03;;
21886;SDS011;11108;49.988;8.182;2023-06-24T07:13:27;7.97;;;4.90;;
21886;SDS011;11108;49.988;8.182;2023-06-24T07:15:52;5.53;;;5.05;;
21886;SDS011;11108;49.988;8.182;2023-06-24T07:18:17;5.38;;;4.97;;
21886;SDS011;11108;49.988;8.182;2023-06-24T07:20:43;5.63;;;5.13;;
21886;SDS011;11108;49.988;8.182;2023-06-24T07:23:08;5.93;;;5.45;;
21886;SDS011;11108;49.988;8.182;2023-06-24T07:25:35;5.90;;;5.45;;
21886;SDS011;11108;49.988;8.182;2023-06-24T07:28:00;6.05;;;5.55;;
21886;SDS011;11108;49.988;8.182;2023-06-24T07:30:25;5.57;;;5.10;;
21886;SDS011;11108;49.988;8.182;2023-06-24T07:32:50;6.40;;;5.80;;
21886;SDS011;11108;49.988;8.182;2023-06-24T07:35:15;5.82;;;5.32;;
21886;SDS011;11108;49.988;8.182;2023-06-24T07:37:41;5.40;;;5.00;;
21886;SDS011;11108;49.988;8.182;2023-06-24T07:40:06;6.75;;;6.07;;
21886;SDS011;11108;49.988;8.182;2023-06-24T07:42:33;6.30;;;5.80;;
21886;SDS011;11108;49.988;8.182;2023-06-24T07:44:58;5.90;;;5.30;;
21886;SDS011;11108;49.988;8.182;2023-06-24T07:47:23;6.65;;;6.07;;
21886;SDS011;11108;49.988;8.182;2023-06-24T07:49:48;6.75;;;6.15;;
21886;SDS011;11108;49.988;8.182;2023-06-24T07:52:13;5.95;;;5.53;;
21886;SDS011;11108;49.988;8.182;2023-06-24T07:54:39;6.68;;;5.50;;
21886;SDS011;11108;49.988;8.182;2023-06-24T07:57:04;6.13;;;5.72;;
21886;SDS011;11108;49.988;8.182;2023-06-24T07:59:29;6.28;;;5.70;;
21886;SDS011;11108;49.988;8.182;2023-06-24T08:01:54;6.60;;;6.00;;
21886;SDS011;11108;49.988;8.182;2023-06-24T08:04:20;6.40;;;5.88;;
21886;SDS011;11108;49.988;8.182;2023-06-24T08:06:45;5.57;;;5.18;;
21886;SDS011;11108;49.988;8.182;2023-06-24T08:09:10;6.07;;;5.57;;
21886;SDS011;11108;49.988;8.182;2023-06-24T08:11:35;6.22;;;5.63;;
21886;SDS011;11108;49.988;8.182;2023-06-24T08:14:00;6.60;;;5.85;;
21886;SDS011;11108;49.988;8.182;2023-06-24T08:16:26;8.32;;;5.82;;
21886;SDS011;11108;49.988;8.182;2023-06-24T08:18:52;6.68;;;6.07;;
21886;SDS011;11108;49.988;8.182;2023-06-24T08:21:18;6.72;;;6.20;;
21886;SDS011;11108;49.988;8.182;2023-06-24T08:23:43;8.05;;;5.40;;
21886;SDS011;11108;49.988;8.182;2023-06-24T08:26:08;5.70;;;5.20;;
21886;SDS011;11108;49.988;8.182;2023-06-24T08:28:34;6.05;;;5.47;;
21886;SDS011;11108;49.988;8.182;2023-06-24T08:30:59;6.15;;;5.65;;
21886;SDS011;11108;49.988;8.182;2023-06-24T08:33:24;5.97;;;5.30;;
21886;SDS011;11108;49.988;8.182;2023-06-24T08:35:49;5.82;;;5.43;;
21886;SDS011;11108;49.988;8.182;2023-06-24T08:38:14;6.13;;;5.47;;
21886;SDS011;11108;49.988;8.182;2023-06-24T08:40:40;5.47;;;5.07;;
21886;SDS011;11108;49.988;8.182;2023-06-24T08:43:05;5.75;;;5.28;;
21886;SDS011;11108;49.988;8.182;2023-06-24T08:45:31;5.97;;;5.10;;
21886;SDS011;11108;49.988;8.182;2023-06-24T08:47:56;5.68;;;5.20;;
21886;SDS011;11108;49.988;8.182;2023-06-24T08:50:21;5.15;;;4.70;;
21886;SDS011;11108;49.988;8.182;2023-06-24T08:52:48;4.55;;;4.25;;
21886;SDS011;11108;49.988;8.182;2023-06-24T08:55:16;4.78;;;4.38;;
21886;SDS011;11108;49.988;8.182;2023-06-24T08:57:41;6.72;;;4.40;;
21886;SDS011;11108;49.988;8.182;2023-06-24T09:00:06;4.72;;;4.32;;
21886;SDS011;11108;49.988;8.182;2023-06-24T09:02:35;5.15;;;4.68;;
21886;SDS011;11108;49.988;8.182;2023-06-24T09:05:03;5.50;;;4.93;;
21886;SDS011;11108;49.988;8.182;2023-06-24T09:07:28;5.10;;;4.47;;
21886;SDS011;11108;49.988;8.182;2023-06-24T09:09:54;4.85;;;4.45;;
21886;SDS011;11108;49.988;8.182;2023-06-24T09:12:19;4.72;;;4.32;;
21886;SDS011;11108;49.988;8.182;2023-06-24T09:14:48;5.40;;;4.95;;
21886;SDS011;11108;49.988;8.182;2023-06-24T09:17:13;4.68;;;4.30;;
21886;SDS011;11108;49.988;8.182;2023-06-24T09:19:38;5.50;;;4.68;;
21886;SDS011;11108;49.988;8.182;2023-06-24T09:22:05;5.00;;;4.60;;
21886;SDS011;11108;49.988;8.182;2023-06-24T09:24:31;6.68;;;4.60;;
21886;SDS011;11108;49.988;8.182;2023-06-24T09:26:57;6.13;;;5.10;;
21886;SDS011;11108;49.988;8.182;2023-06-24T09:29:26;5.53;;;4.85;;
21886;SDS011;11108;49.988;8.182;2023-06-24T09:31:52;5.38;;;4.88;;
21886;SDS011;11108;49.988;8.182;2023-06-24T09:34:18;5.53;;;5.13;;
21886;SDS011;11108;49.988;8.182;2023-06-24T09:36:44;5.43;;;4.93;;
21886;SDS011;11108;49.988;8.182;2023-06-24T09:39:10;5.68;;;5.18;;
21886;SDS011;11108;49.988;8.182;2023-06-24T09:41:35;5.57;;;5.10;;
21886;SDS011;11108;49.988;8.182;2023-06-24T09:44:01;5.63;;;5.22;;
21886;SDS011;11108;49.988;8.182;2023-06-24T09:46:27;5.78;;;5.38;;
21886;SDS011;11108;49.988;8.182;2023-06-24T09:48:52;5.60;;;5.10;;
21886;SDS011;11108;49.988;8.182;2023-06-24T09:51:18;5.53;;;5.13;;
21886;SDS011;11108;49.988;8.182;2023-06-24T09:53:43;4.70;;;4.32;;
21886;SDS011;11108;49.988;8.182;2023-06-24T09:56:09;5.15;;;4.75;;
21886;SDS011;11108;49.988;8.182;2023-06-24T09:58:37;4.65;;;4.35;;
21886;SDS011;11108;49.988;8.182;2023-06-24T10:01:05;4.43;;;4.13;;
21886;SDS011;11108;49.988;8.182;2023-06-24T10:03:31;5.53;;;5.03;;
21886;SDS011;11108;49.988;8.182;2023-06-24T10:05:57;4.95;;;4.65;;
21886;SDS011;11108;49.988;8.182;2023-06-24T10:08:22;5.13;;;4.72;;
21886;SDS011;11108;49.988;8.182;2023-06-24T10:10:48;5.38;;;4.88;;
21886;SDS011;11108;49.988;8.182;2023-06-24T10:13:13;5.38;;;4.97;;
21886;SDS011;11108;49.988;8.182;2023-06-24T10:15:38;5.18;;;4.65;;
21886;SDS011;11108;49.988;8.182;2023-06-24T10:18:22;4.38;;;4.07;;
21886;SDS011;11108;49.988;8.182;2023-06-24T10:20:49;4.53;;;4.15;;
21886;SDS011;11108;49.988;8.182;2023-06-24T10:23:14;4.40;;;4.10;;
21886;SDS011;11108;49.988;8.182;2023-06-24T10:25:39;4.90;;;4.50;;
21886;SDS011;11108;49.988;8.182;2023-06-24T10:28:04;4.15;;;3.85;;
21886;SDS011;11108;49.988;8.182;2023-06-24T10:30:29;4.68;;;4.10;;
21886;SDS011;11108;49.988;8.182;2023-06-24T10:32:55;4.72;;;4.30;;
21886;SDS011;11108;49.988;8.182;2023-06-24T10:35:24;4.63;;;4.00;;
21886;SDS011;11108;49.988;8.182;2023-06-24T10:37:54;4.10;;;3.80;;
21886;SDS011;11108;49.988;8.182;2023-06-24T10:40:33;4.55;;;4.18;;
21886;SDS011;11108;49.988;8.182;2023-06-24T10:42:58;4.82;;;4.28;;
21886;SDS011;11108;49.988;8.182;2023-06-24T10:45:24;6.60;;;5.10;;
21886;SDS011;11108;49.988;8.182;2023-06-24T10:47:49;8.13;;;5.60;;
21886;SDS011;11108;49.988;8.182;2023-06-24T10:50:19;9.07;;;5.15;;
21886;SDS011;11108;49.988;8.182;2023-06-24T10:52:45;7.93;;;4.80;;
21886;SDS011;11108;49.988;8.182;2023-06-24T10:55:13;8.30;;;5.15;;
21886;SDS011;11108;49.988;8.182;2023-06-24T10:57:38;6.03;;;4.47;;
21886;SDS011;11108;49.988;8.182;2023-06-24T11:00:03;9.25;;;4.68;;
21886;SDS011;11108;49.988;8.182;2023-06-24T11:02:29;5.88;;;5.28;;
21886;SDS011;11108;49.988;8.182;2023-06-24T11:04:55;5.60;;;5.10;;
21886;SDS011;11108;49.988;8.182;2023-06-24T11:07:21;7.07;;;4.68;;
21886;SDS011;11108;49.988;8.182;2023-06-24T11:09:54;5.43;;;4.65;;
21886;SDS011;11108;49.988;8.182;2023-06-24T11:12:23;6.40;;;4.75;;
21886;SDS011;11108;49.988;8.182;2023-06-24T11:14:48;9.45;;;5.47;;
21886;SDS011;11108;49.988;8.182;2023-06-24T11:17:13;5.50;;;5.00;;
21886;SDS011;11108;49.988;8.182;2023-06-24T11:19:38;6.25;;;4.82;;
21886;SDS011;11108;49.988;8.182;2023-06-24T11:22:05;7.90;;;4.65;;
21886;SDS011;11108;49.988;8.182;2023-06-24T11:24:31;6.50;;;4.72;;
21886;SDS011;11108;49.988;8.182;2023-06-24T11:26:56;5.10;;;4.55;;
21886;SDS011;11108;49.988;8.182;2023-06-24T11:29:22;5.75;;;4.93;;
21886;SDS011;11108;49.988;8.182;2023-06-24T11:31:48;6.05;;;4.85;;
21886;SDS011;11108;49.988;8.182;2023-06-24T11:34:13;4.72;;;4.30;;
21886;SDS011;11108;49.988;8.182;2023-06-24T11:36:38;5.93;;;4.60;;
21886;SDS011;11108;49.988;8.182;2023-06-24T11:39:03;5.47;;;4.18;;
21886;SDS011;11108;49.988;8.182;2023-06-24T11:41:29;4.93;;;4.50;;
21886;SDS011;11108;49.988;8.182;2023-06-24T11:43:54;4.67;;;4.27;;
21886;SDS011;11108;49.988;8.182;2023-06-24T11:46:29;6.75;;;4.38;;
21886;SDS011;11108;49.988;8.182;2023-06-24T11:49:04;5.15;;;4.38;;
21886;SDS011;11108;49.988;8.182;2023-06-24T11:51:29;4.97;;;3.72;;
21886;SDS011;11108;49.988;8.182;2023-06-24T11:53:58;5.25;;;4.55;;
21886;SDS011;11108;49.988;8.182;2023-06-24T11:56:33;7.93;;;4.70;;
21886;SDS011;11108;49.988;8.182;2023-06-24T11:58:58;7.28;;;4.65;;
21886;SDS011;11108;49.988;8.182;2023-06-24T12:01:29;8.90;;;4.57;;
21886;SDS011;11108;49.988;8.182;2023-06-24T12:03:55;10.95;;;5.28;;
21886;SDS011;11108;49.988;8.182;2023-06-24T12:06:20;4.65;;;4.10;;
21886;SDS011;11108;49.988;8.182;2023-06-24T12:08:46;7.53;;;4.60;;
21886;SDS011;11108;49.988;8.182;2023-06-24T12:11:11;4.95;;;4.53;;
21886;SDS011;11108;49.988;8.182;2023-06-24T12:13:36;6.82;;;5.00;;
21886;SDS011;11108;49.988;8.182;2023-06-24T12:16:01;7.90;;;4.57;;
21886;SDS011;11108;49.988;8.182;2023-06-24T12:18:26;5.55;;;4.38;;
21886;SDS011;11108;49.988;8.182;2023-06-24T12:20:52;5.40;;;4.60;;
21886;SDS011;11108;49.988;8.182;2023-06-24T12:23:17;5.05;;;4.53;;
21886;SDS011;11108;49.988;8.182;2023-06-24T12:25:42;5.43;;;4.93;;
21886;SDS011;11108;49.988;8.182;2023-06-24T12:28:08;6.68;;;4.40;;
21886;SDS011;11108;49.988;8.182;2023-06-24T12:30:33;4.80;;;4.40;;
21886;SDS011;11108;49.988;8.182;2023-06-24T12:32:58;4.90;;;4.13;;
21886;SDS011;11108;49.988;8.182;2023-06-24T12:35:23;5.10;;;4.57;;
21886;SDS011;11108;49.988;8.182;2023-06-24T12:37:51;4.50;;;4.10;;
21886;SDS011;11108;49.988;8.182;2023-06-24T12:40:17;4.45;;;3.85;;
21886;SDS011;11108;49.988;8.182;2023-06-24T12:42:43;4.60;;;4.03;;
21886;SDS011;11108;49.988;8.182;2023-06-24T12:45:08;4.50;;;4.10;;
21886;SDS011;11108;49.988;8.182;2023-06-24T12:47:33;5.57;;;3.97;;
21886;SDS011;11108;49.988;8.182;2023-06-24T12:49:59;4.40;;;4.00;;
21886;SDS011;11108;49.988;8.182;2023-06-24T12:52:24;4.20;;;3.80;;
21886;SDS011;11108;49.988;8.182;2023-06-24T12:54:49;5.03;;;4.63;;
21886;SDS011;11108;49.988;8.182;2023-06-24T12:57:14;5.50;;;4.57;;
21886;SDS011;11108;49.988;8.182;2023-06-24T12:59:40;4.07;;;3.88;;
21886;SDS011;11108;49.988;8.182;2023-06-24T13:02:06;4.45;;;4.05;;
21886;SDS011;11108;49.988;8.182;2023-06-24T13:04:31;4.47;;;4.00;;
21886;SDS011;11108;49.988;8.182;2023-06-24T13:06:56;4.22;;;3.90;;
21886;SDS011;11108;49.988;8.182;2023-06-24T13:09:21;4.30;;;4.00;;
21886;SDS011;11108;49.988;8.182;2023-06-24T13:11:46;5.10;;;4.18;;
21886;SDS011;11108;49.988;8.182;2023-06-24T13:14:13;4.82;;;3.80;;
21886;SDS011;11108;49.988;8.182;2023-06-24T13:16:38;4.28;;;3.92;;
21886;SDS011;11108;49.988;8.182;2023-06-24T13:19:03;4.32;;;4.03;;
21886;SDS011;11108;49.988;8.182;2023-06-24T13:21:29;4.82;;;4.35;;
21886;SDS011;11108;49.988;8.182;2023-06-24T13:23:54;4.40;;;4.00;;
21886;SDS011;11108;49.988;8.182;2023-06-24T13:26:19;4.13;;;3.83;;
21886;SDS011;11108;49.988;8.182;2023-06-24T13:28:45;5.70;;;4.00;;
21886;SDS011;11108;49.988;8.182;2023-06-24T13:31:11;4.03;;;3.72;;
21886;SDS011;11108;49.988;8.182;2023-06-24T13:33:36;4.35;;;4.00;;
21886;SDS011;11108;49.988;8.182;2023-06-24T13:36:01;3.88;;;3.58;;
21886;SDS011;11108;49.988;8.182;2023-06-24T13:38:27;3.95;;;3.60;;
21886;SDS011;11108;49.988;8.182;2023-06-24T13:40:52;3.88;;;3.58;;
21886;SDS011;11108;49.988;8.182;2023-06-24T13:43:18;4.32;;;4.03;;
21886;SDS011;11108;49.988;8.182;2023-06-24T13:45:43;4.32;;;4.03;;
21886;SDS011;11108;49.988;8.182;2023-06-24T13:48:08;3.75;;;3.55;;
21886;SDS011;11108;49.988;8.182;2023-06-24T13:50:33;4.00;;;3.70;;
21886;SDS011;11108;49.988;8.182;2023-06-24T13:52:58;3.88;;;3.58;;
21886;SDS011;11108;49.988;8.182;2023-06-24T13:55:24;4.10;;;3.80;;
21886;SDS011;11108;49.988;8.182;2023-06-24T13:57:49;3.80;;;3.50;;
21886;SDS011;11108;49.988;8.182;2023-06-24T14:00:14;3.90;;;3.60;;
21886;SDS011;11108;49.988;8.182;2023-06-24T14:02:40;3.95;;;3.53;;
21886;SDS011;11108;49.988;8.182;2023-06-24T14:05:05;3.88;;;3.58;;
21886;SDS011;11108;49.988;8.182;2023-06-24T14:07:31;3.90;;;3.67;;
21886;SDS011;11108;49.988;8.182;2023-06-24T14:09:56;3.83;;;3.53;;
21886;SDS011;11108;49.988;8.182;2023-06-24T14:12:21;3.97;;;3.63;;
21886;SDS011;11108;49.988;8.182;2023-06-24T14:14:47;3.53;;;3.33;;
21886;SDS011;11108;49.988;8.182;2023-06-24T14:17:12;3.50;;;3.30;;
21886;SDS011;11108;49.988;8.182;2023-06-24T14:19:38;3.90;;;3.60;;
21886;SDS011;11108;49.988;8.182;2023-06-24T14:22:03;4.18;;;3.88;;
21886;SDS011;11108;49.988;8.182;2023-06-24T14:24:29;3.60;;;3.40;;
21886;SDS011;11108;49.988;8.182;2023-06-24T14:26:54;3.95;;;3.65;;
21886;SDS011;11108;49.988;8.182;2023-06-24T14:29:19;3.93;;;3.57;;
21886;SDS011;11108;49.988;8.182;2023-06-24T14:31:44;3.40;;;3.10;;
21886;SDS011;11108;49.988;8.182;2023-06-24T14:34:10;3.50;;;3.30;;
21886;SDS011;11108;49.988;8.182;2023-06-24T14:36:35;3.63;;;3.38;;
21886;SDS011;11108;49.988;8.182;2023-06-24T14:39:00;3.45;;;3.15;;
21886;SDS011;11108;49.988;8.182;2023-06-24T14:41:25;3.03;;;2.90;;
21886;SDS011;11108;49.988;8.182;2023-06-24T14:43:51;4.20;;;3.80;;
21886;SDS011;11108;49.988;8.182;2023-06-24T14:46:16;3.65;;;3.35;;
21886;SDS011;11108;49.988;8.182;2023-06-24T14:48:41;3.53;;;3.30;;